sensor_id;sensor_type;location;lat;lon;timestamp;P1;durP1;ratioP1;P2;durP2;ratioP2
16393;SDS011;8306;51.128;4.476;2024-02-26T00:01:56;1.73;;;1.30;;
16393;SDS011;8306;51.128;4.476;2024-02-26T00:04:23;2.63;;;1.30;;
16393;SDS011;8306;51.128;4.476;2024-02-26T00:06:49;1.60;;;1.20;;
16393;SDS011;8306;51.128;4.476;2024-02-26T00:09:16;2.13;;;1.13;;
16393;SDS011;8306;51.128;4.476;2024-02-26T00:11:42;2.47;;;1.23;;
16393;SDS011;8306;51.128;4.476;2024-02-26T00:14:09;1.73;;;1.40;;
16393;SDS011;8306;51.128;4.476;2024-02-26T00:16:35;1.40;;;1.20;;
16393;SDS011;8306;51.128;4.476;2024-02-26T00:19:02;1.90;;;1.23;;
16393;SDS011;8306;51.128;4.476;2024-02-26T00:21:28;1.30;;;1.20;;
16393;SDS011;8306;51.128;4.476;2024-02-26T00:23:55;1.27;;;1.10;;
16393;SDS011;8306;51.128;4.476;2024-02-26T00:26:21;2.37;;;1.20;;
16393;SDS011;8306;51.128;4.476;2024-02-26T00:28:48;1.87;;;1.10;;
16393;SDS011;8306;51.128;4.476;2024-02-26T00:31:14;2.43;;;1.33;;
16393;SDS011;8306;51.128;4.476;2024-02-26T00:33:41;1.73;;;1.13;;
16393;SDS011;8306;51.128;4.476;2024-02-26T00:36:07;1.30;;;1.20;;
16393;SDS011;8306;51.128;4.476;2024-02-26T00:38:34;2.07;;;1.30;;
16393;SDS011;8306;51.128;4.476;2024-02-26T00:41:00;3.00;;;1.03;;
16393;SDS011;8306;51.128;4.476;2024-02-26T00:43:27;2.13;;;1.10;;
16393;SDS011;8306;51.128;4.476;2024-02-26T00:45:53;1.83;;;1.20;;
16393;SDS011;8306;51.128;4.476;2024-02-26T00:48:20;1.60;;;1.40;;
16393;SDS011;8306;51.128;4.476;2024-02-26T00:50:47;1.67;;;1.30;;
16393;SDS011;8306;51.128;4.476;2024-02-26T00:53:13;1.80;;;1.20;;
16393;SDS011;8306;51.128;4.476;2024-02-26T00:55:40;2.10;;;1.20;;
16393;SDS011;8306;51.128;4.476;2024-02-26T00:58:06;2.00;;;1.40;;
16393;SDS011;8306;51.128;4.476;2024-02-26T01:00:33;1.80;;;1.20;;
16393;SDS011;8306;51.128;4.476;2024-02-26T01:02:59;1.97;;;1.03;;
16393;SDS011;8306;51.128;4.476;2024-02-26T01:05:25;1.77;;;1.40;;
16393;SDS011;8306;51.128;4.476;2024-02-26T01:07:52;1.90;;;1.20;;
16393;SDS011;8306;51.128;4.476;2024-02-26T01:10:18;1.80;;;1.13;;
16393;SDS011;8306;51.128;4.476;2024-02-26T01:12:45;1.50;;;1.10;;
16393;SDS011;8306;51.128;4.476;2024-02-26T01:15:11;1.20;;;1.10;;
16393;SDS011;8306;51.128;4.476;2024-02-26T01:17:38;2.00;;;1.40;;
16393;SDS011;8306;51.128;4.476;2024-02-26T01:20:04;1.30;;;1.20;;
16393;SDS011;8306;51.128;4.476;2024-02-26T01:22:31;1.33;;;1.20;;
16393;SDS011;8306;51.128;4.476;2024-02-26T01:24:57;2.03;;;1.30;;
16393;SDS011;8306;51.128;4.476;2024-02-26T01:27:24;1.63;;;1.10;;
16393;SDS011;8306;51.128;4.476;2024-02-26T01:29:50;1.73;;;1.13;;
16393;SDS011;8306;51.128;4.476;2024-02-26T01:32:17;2.47;;;1.50;;
16393;SDS011;8306;51.128;4.476;2024-02-26T01:34:43;1.53;;;1.20;;
16393;SDS011;8306;51.128;4.476;2024-02-26T01:37:10;1.33;;;1.23;;
16393;SDS011;8306;51.128;4.476;2024-02-26T01:39:36;2.03;;;1.50;;
16393;SDS011;8306;51.128;4.476;2024-02-26T01:42:03;1.53;;;1.43;;
16393;SDS011;8306;51.128;4.476;2024-02-26T01:44:29;2.40;;;1.90;;
16393;SDS011;8306;51.128;4.476;2024-02-26T01:46:56;2.83;;;1.90;;
16393;SDS011;8306;51.128;4.476;2024-02-26T01:49:22;1.77;;;1.67;;
16393;SDS011;8306;51.128;4.476;2024-02-26T01:51:49;2.83;;;2.07;;
16393;SDS011;8306;51.128;4.476;2024-02-26T01:54:15;5.73;;;2.13;;
16393;SDS011;8306;51.128;4.476;2024-02-26T01:56:42;2.10;;;1.90;;
16393;SDS011;8306;51.128;4.476;2024-02-26T01:59:08;2.30;;;2.03;;
16393;SDS011;8306;51.128;4.476;2024-02-26T02:01:35;2.00;;;1.90;;
16393;SDS011;8306;51.128;4.476;2024-02-26T02:04:01;2.40;;;2.30;;
16393;SDS011;8306;51.128;4.476;2024-02-26T02:06:28;3.37;;;3.07;;
16393;SDS011;8306;51.128;4.476;2024-02-26T02:08:54;3.07;;;2.87;;
16393;SDS011;8306;51.128;4.476;2024-02-26T02:11:21;3.73;;;2.90;;
16393;SDS011;8306;51.128;4.476;2024-02-26T02:13:47;2.53;;;2.40;;
16393;SDS011;8306;51.128;4.476;2024-02-26T02:16:13;2.97;;;2.67;;
16393;SDS011;8306;51.128;4.476;2024-02-26T02:18:40;3.07;;;2.77;;
16393;SDS011;8306;51.128;4.476;2024-02-26T02:21:06;3.73;;;3.30;;
16393;SDS011;8306;51.128;4.476;2024-02-26T02:23:33;3.20;;;2.90;;
16393;SDS011;8306;51.128;4.476;2024-02-26T02:25:59;3.87;;;3.57;;
16393;SDS011;8306;51.128;4.476;2024-02-26T02:28:26;3.70;;;3.40;;
16393;SDS011;8306;51.128;4.476;2024-02-26T02:30:52;3.80;;;3.47;;
16393;SDS011;8306;51.128;4.476;2024-02-26T02:33:19;3.90;;;3.60;;
16393;SDS011;8306;51.128;4.476;2024-02-26T02:35:45;4.03;;;3.63;;
16393;SDS011;8306;51.128;4.476;2024-02-26T02:38:12;3.93;;;3.10;;
16393;SDS011;8306;51.128;4.476;2024-02-26T02:40:38;4.40;;;4.00;;
16393;SDS011;8306;51.128;4.476;2024-02-26T02:43:05;3.60;;;3.30;;
16393;SDS011;8306;51.128;4.476;2024-02-26T02:45:31;3.87;;;3.57;;
16393;SDS011;8306;51.128;4.476;2024-02-26T02:47:58;4.50;;;4.10;;
16393;SDS011;8306;51.128;4.476;2024-02-26T02:50:24;4.57;;;4.07;;
16393;SDS011;8306;51.128;4.476;2024-02-26T02:52:51;3.67;;;3.47;;
16393;SDS011;8306;51.128;4.476;2024-02-26T02:55:17;3.63;;;3.33;;
16393;SDS011;8306;51.128;4.476;2024-02-26T02:57:44;4.17;;;3.87;;
16393;SDS011;8306;51.128;4.476;2024-02-26T03:00:10;4.30;;;3.90;;
16393;SDS011;8306;51.128;4.476;2024-02-26T03:02:37;5.40;;;5.00;;
16393;SDS011;8306;51.128;4.476;2024-02-26T03:05:03;4.67;;;4.27;;
16393;SDS011;8306;51.128;4.476;2024-02-26T03:07:30;4.77;;;4.40;;
16393;SDS011;8306;51.128;4.476;2024-02-26T03:09:56;5.80;;;5.40;;
16393;SDS011;8306;51.128;4.476;2024-02-26T03:12:23;4.97;;;4.57;;
16393;SDS011;8306;51.128;4.476;2024-02-26T03:14:49;5.03;;;4.73;;
16393;SDS011;8306;51.128;4.476;2024-02-26T03:17:15;5.97;;;5.37;;
16393;SDS011;8306;51.128;4.476;2024-02-26T03:19:43;4.93;;;4.53;;
16393;SDS011;8306;51.128;4.476;2024-02-26T03:22:08;5.47;;;5.07;;
16393;SDS011;8306;51.128;4.476;2024-02-26T03:24:35;5.63;;;5.20;;
16393;SDS011;8306;51.128;4.476;2024-02-26T03:27:01;6.40;;;5.90;;
16393;SDS011;8306;51.128;4.476;2024-02-26T03:29:28;5.97;;;5.57;;
16393;SDS011;8306;51.128;4.476;2024-02-26T03:31:54;6.97;;;5.47;;
16393;SDS011;8306;51.128;4.476;2024-02-26T03:34:21;5.40;;;5.00;;
16393;SDS011;8306;51.128;4.476;2024-02-26T03:36:47;6.80;;;6.10;;
16393;SDS011;8306;51.128;4.476;2024-02-26T03:39:14;9.00;;;6.20;;
16393;SDS011;8306;51.128;4.476;2024-02-26T03:41:40;6.53;;;6.13;;
16393;SDS011;8306;51.128;4.476;2024-02-26T03:44:07;7.87;;;7.27;;
16393;SDS011;8306;51.128;4.476;2024-02-26T03:46:33;6.37;;;5.93;;
16393;SDS011;8306;51.128;4.476;2024-02-26T03:49:00;8.10;;;7.50;;
16393;SDS011;8306;51.128;4.476;2024-02-26T03:51:26;7.60;;;6.93;;
16393;SDS011;8306;51.128;4.476;2024-02-26T03:53:53;8.37;;;7.77;;
16393;SDS011;8306;51.128;4.476;2024-02-26T03:56:19;8.93;;;8.23;;
16393;SDS011;8306;51.128;4.476;2024-02-26T03:58:46;9.03;;;8.20;;
16393;SDS011;8306;51.128;4.476;2024-02-26T04:01:12;9.27;;;8.53;;
16393;SDS011;8306;51.128;4.476;2024-02-26T04:03:39;7.73;;;7.03;;
16393;SDS011;8306;51.128;4.476;2024-02-26T04:06:08;9.43;;;8.73;;
16393;SDS011;8306;51.128;4.476;2024-02-26T04:08:31;9.37;;;8.67;;
16393;SDS011;8306;51.128;4.476;2024-02-26T04:10:58;9.63;;;8.77;;
16393;SDS011;8306;51.128;4.476;2024-02-26T04:13:25;9.10;;;8.40;;
16393;SDS011;8306;51.128;4.476;2024-02-26T04:15:51;7.73;;;7.20;;
16393;SDS011;8306;51.128;4.476;2024-02-26T04:18:17;9.23;;;8.63;;
16393;SDS011;8306;51.128;4.476;2024-02-26T04:20:44;8.07;;;7.50;;
16393;SDS011;8306;51.128;4.476;2024-02-26T04:23:10;8.37;;;7.73;;
16393;SDS011;8306;51.128;4.476;2024-02-26T04:25:37;8.97;;;8.37;;
16393;SDS011;8306;51.128;4.476;2024-02-26T04:28:03;9.73;;;8.93;;
16393;SDS011;8306;51.128;4.476;2024-02-26T04:30:30;7.73;;;7.20;;
16393;SDS011;8306;51.128;4.476;2024-02-26T04:32:56;9.47;;;8.80;;
16393;SDS011;8306;51.128;4.476;2024-02-26T04:35:23;8.60;;;8.07;;
16393;SDS011;8306;51.128;4.476;2024-02-26T04:37:49;8.53;;;7.83;;
16393;SDS011;8306;51.128;4.476;2024-02-26T04:40:16;10.37;;;9.63;;
16393;SDS011;8306;51.128;4.476;2024-02-26T04:42:42;8.17;;;7.60;;
16393;SDS011;8306;51.128;4.476;2024-02-26T04:45:09;9.60;;;8.83;;
16393;SDS011;8306;51.128;4.476;2024-02-26T04:47:35;10.37;;;9.63;;
16393;SDS011;8306;51.128;4.476;2024-02-26T04:50:02;9.00;;;8.43;;
16393;SDS011;8306;51.128;4.476;2024-02-26T04:52:28;8.17;;;7.50;;
16393;SDS011;8306;51.128;4.476;2024-02-26T04:54:55;7.73;;;7.13;;
16393;SDS011;8306;51.128;4.476;2024-02-26T04:57:21;7.30;;;6.87;;
16393;SDS011;8306;51.128;4.476;2024-02-26T04:59:48;6.90;;;6.50;;
16393;SDS011;8306;51.128;4.476;2024-02-26T05:02:14;5.90;;;5.50;;
16393;SDS011;8306;51.128;4.476;2024-02-26T05:04:40;6.43;;;6.03;;
16393;SDS011;8306;51.128;4.476;2024-02-26T05:07:07;6.83;;;6.43;;
16393;SDS011;8306;51.128;4.476;2024-02-26T05:09:34;6.23;;;5.80;;
16393;SDS011;8306;51.128;4.476;2024-02-26T05:12:00;6.67;;;6.27;;
16393;SDS011;8306;51.128;4.476;2024-02-26T05:14:26;7.37;;;6.87;;
16393;SDS011;8306;51.128;4.476;2024-02-26T05:16:53;6.27;;;5.87;;
16393;SDS011;8306;51.128;4.476;2024-02-26T05:19:19;5.93;;;5.53;;
16393;SDS011;8306;51.128;4.476;2024-02-26T05:21:46;6.40;;;6.00;;
16393;SDS011;8306;51.128;4.476;2024-02-26T05:24:12;5.83;;;5.53;;
16393;SDS011;8306;51.128;4.476;2024-02-26T05:26:39;6.73;;;6.17;;
16393;SDS011;8306;51.128;4.476;2024-02-26T05:29:05;5.53;;;5.13;;
16393;SDS011;8306;51.128;4.476;2024-02-26T05:31:32;5.80;;;5.40;;
16393;SDS011;8306;51.128;4.476;2024-02-26T05:33:58;5.97;;;5.67;;
16393;SDS011;8306;51.128;4.476;2024-02-26T05:36:25;6.50;;;6.10;;
16393;SDS011;8306;51.128;4.476;2024-02-26T05:38:51;5.97;;;5.67;;
16393;SDS011;8306;51.128;4.476;2024-02-26T05:41:18;5.40;;;5.10;;
16393;SDS011;8306;51.128;4.476;2024-02-26T05:43:44;7.00;;;6.50;;
16393;SDS011;8306;51.128;4.476;2024-02-26T05:46:11;6.10;;;5.70;;
16393;SDS011;8306;51.128;4.476;2024-02-26T05:48:37;6.57;;;6.17;;
16393;SDS011;8306;51.128;4.476;2024-02-26T05:51:04;7.17;;;6.67;;
16393;SDS011;8306;51.128;4.476;2024-02-26T05:53:31;6.93;;;6.43;;
16393;SDS011;8306;51.128;4.476;2024-02-26T05:55:57;5.83;;;5.43;;
16393;SDS011;8306;51.128;4.476;2024-02-26T05:58:23;6.07;;;5.67;;
16393;SDS011;8306;51.128;4.476;2024-02-26T06:00:50;6.03;;;5.60;;
16393;SDS011;8306;51.128;4.476;2024-02-26T06:03:16;7.37;;;6.87;;
16393;SDS011;8306;51.128;4.476;2024-02-26T06:05:43;5.83;;;5.43;;
16393;SDS011;8306;51.128;4.476;2024-02-26T06:08:09;6.03;;;5.63;;
16393;SDS011;8306;51.128;4.476;2024-02-26T06:10:36;5.50;;;5.10;;
16393;SDS011;8306;51.128;4.476;2024-02-26T06:13:02;5.77;;;5.37;;
16393;SDS011;8306;51.128;4.476;2024-02-26T06:15:29;5.97;;;5.67;;
16393;SDS011;8306;51.128;4.476;2024-02-26T06:17:55;6.13;;;5.63;;
16393;SDS011;8306;51.128;4.476;2024-02-26T06:20:22;6.57;;;6.07;;
16393;SDS011;8306;51.128;4.476;2024-02-26T06:22:48;6.77;;;6.37;;
16393;SDS011;8306;51.128;4.476;2024-02-26T06:25:15;7.33;;;6.93;;
16393;SDS011;8306;51.128;4.476;2024-02-26T06:27:41;6.30;;;5.70;;
16393;SDS011;8306;51.128;4.476;2024-02-26T06:30:08;6.27;;;5.87;;
16393;SDS011;8306;51.128;4.476;2024-02-26T06:32:34;7.40;;;6.90;;
16393;SDS011;8306;51.128;4.476;2024-02-26T06:35:01;7.27;;;6.87;;
16393;SDS011;8306;51.128;4.476;2024-02-26T06:37:27;6.63;;;6.23;;
16393;SDS011;8306;51.128;4.476;2024-02-26T06:39:54;6.60;;;6.20;;
16393;SDS011;8306;51.128;4.476;2024-02-26T06:42:20;8.47;;;7.97;;
16393;SDS011;8306;51.128;4.476;2024-02-26T06:44:47;7.00;;;6.60;;
16393;SDS011;8306;51.128;4.476;2024-02-26T06:47:13;6.90;;;6.50;;
16393;SDS011;8306;51.128;4.476;2024-02-26T06:49:39;6.70;;;6.30;;
16393;SDS011;8306;51.128;4.476;2024-02-26T06:52:06;6.00;;;5.60;;
16393;SDS011;8306;51.128;4.476;2024-02-26T06:54:32;6.97;;;6.47;;
16393;SDS011;8306;51.128;4.476;2024-02-26T06:56:59;7.33;;;6.83;;
16393;SDS011;8306;51.128;4.476;2024-02-26T06:59:25;7.00;;;6.60;;
16393;SDS011;8306;51.128;4.476;2024-02-26T07:01:53;7.03;;;6.50;;
16393;SDS011;8306;51.128;4.476;2024-02-26T07:04:18;6.30;;;5.90;;
16393;SDS011;8306;51.128;4.476;2024-02-26T07:06:45;7.60;;;7.10;;
16393;SDS011;8306;51.128;4.476;2024-02-26T07:09:11;6.50;;;6.10;;
16393;SDS011;8306;51.128;4.476;2024-02-26T07:11:38;6.70;;;6.27;;
16393;SDS011;8306;51.128;4.476;2024-02-26T07:14:04;5.57;;;5.27;;
16393;SDS011;8306;51.128;4.476;2024-02-26T07:16:31;6.10;;;5.70;;
16393;SDS011;8306;51.128;4.476;2024-02-26T07:18:57;6.43;;;5.93;;
16393;SDS011;8306;51.128;4.476;2024-02-26T07:21:24;8.23;;;7.47;;
16393;SDS011;8306;51.128;4.476;2024-02-26T07:23:50;7.80;;;7.30;;
16393;SDS011;8306;51.128;4.476;2024-02-26T07:26:17;6.53;;;6.13;;
16393;SDS011;8306;51.128;4.476;2024-02-26T07:28:43;7.30;;;6.80;;
16393;SDS011;8306;51.128;4.476;2024-02-26T07:31:10;8.50;;;7.90;;
16393;SDS011;8306;51.128;4.476;2024-02-26T07:33:36;8.10;;;7.50;;
16393;SDS011;8306;51.128;4.476;2024-02-26T07:36:03;8.37;;;7.87;;
16393;SDS011;8306;51.128;4.476;2024-02-26T07:38:29;7.77;;;7.17;;
16393;SDS011;8306;51.128;4.476;2024-02-26T07:40:55;8.17;;;7.67;;
16393;SDS011;8306;51.128;4.476;2024-02-26T07:43:22;7.80;;;7.40;;
16393;SDS011;8306;51.128;4.476;2024-02-26T07:45:48;6.87;;;6.47;;
16393;SDS011;8306;51.128;4.476;2024-02-26T07:48:15;7.53;;;7.03;;
16393;SDS011;8306;51.128;4.476;2024-02-26T07:50:41;7.27;;;6.63;;
16393;SDS011;8306;51.128;4.476;2024-02-26T07:53:08;7.73;;;7.33;;
16393;SDS011;8306;51.128;4.476;2024-02-26T07:55:34;7.00;;;6.57;;
16393;SDS011;8306;51.128;4.476;2024-02-26T07:58:01;7.67;;;7.17;;
16393;SDS011;8306;51.128;4.476;2024-02-26T08:00:27;8.27;;;7.77;;
16393;SDS011;8306;51.128;4.476;2024-02-26T08:02:54;7.10;;;6.70;;
16393;SDS011;8306;51.128;4.476;2024-02-26T08:05:20;7.63;;;7.20;;
16393;SDS011;8306;51.128;4.476;2024-02-26T08:07:47;7.60;;;7.10;;
16393;SDS011;8306;51.128;4.476;2024-02-26T08:10:13;7.53;;;7.07;;
16393;SDS011;8306;51.128;4.476;2024-02-26T08:12:40;7.97;;;7.47;;
16393;SDS011;8306;51.128;4.476;2024-02-26T08:15:06;7.93;;;7.43;;
16393;SDS011;8306;51.128;4.476;2024-02-26T08:17:33;7.13;;;6.53;;
16393;SDS011;8306;51.128;4.476;2024-02-26T08:19:59;7.27;;;6.80;;
16393;SDS011;8306;51.128;4.476;2024-02-26T08:22:26;6.77;;;6.33;;
16393;SDS011;8306;51.128;4.476;2024-02-26T08:24:52;6.80;;;6.40;;
16393;SDS011;8306;51.128;4.476;2024-02-26T08:27:19;7.07;;;6.63;;
16393;SDS011;8306;51.128;4.476;2024-02-26T08:29:45;6.43;;;6.03;;
16393;SDS011;8306;51.128;4.476;2024-02-26T08:32:12;8.07;;;7.57;;
16393;SDS011;8306;51.128;4.476;2024-02-26T08:34:38;6.93;;;6.47;;
16393;SDS011;8306;51.128;4.476;2024-02-26T08:37:05;7.37;;;6.87;;
16393;SDS011;8306;51.128;4.476;2024-02-26T08:39:31;7.40;;;6.90;;
16393;SDS011;8306;51.128;4.476;2024-02-26T08:41:57;7.13;;;6.67;;
16393;SDS011;8306;51.128;4.476;2024-02-26T08:44:24;6.83;;;6.33;;
16393;SDS011;8306;51.128;4.476;2024-02-26T08:46:50;7.57;;;7.07;;
16393;SDS011;8306;51.128;4.476;2024-02-26T08:49:17;6.53;;;5.93;;
16393;SDS011;8306;51.128;4.476;2024-02-26T08:51:43;6.43;;;6.13;;
16393;SDS011;8306;51.128;4.476;2024-02-26T08:54:10;6.93;;;6.53;;
16393;SDS011;8306;51.128;4.476;2024-02-26T08:56:36;7.30;;;6.80;;
16393;SDS011;8306;51.128;4.476;2024-02-26T08:59:03;6.73;;;6.23;;
16393;SDS011;8306;51.128;4.476;2024-02-26T09:01:30;8.60;;;7.97;;
16393;SDS011;8306;51.128;4.476;2024-02-26T09:03:56;7.50;;;7.00;;
16393;SDS011;8306;51.128;4.476;2024-02-26T09:06:23;6.87;;;6.47;;
16393;SDS011;8306;51.128;4.476;2024-02-26T09:08:49;7.00;;;6.60;;
16393;SDS011;8306;51.128;4.476;2024-02-26T09:11:16;7.47;;;7.07;;
16393;SDS011;8306;51.128;4.476;2024-02-26T09:13:42;7.33;;;6.83;;
16393;SDS011;8306;51.128;4.476;2024-02-26T09:16:09;7.63;;;7.23;;
16393;SDS011;8306;51.128;4.476;2024-02-26T09:18:35;7.83;;;7.43;;
16393;SDS011;8306;51.128;4.476;2024-02-26T09:21:04;8.13;;;7.63;;
16393;SDS011;8306;51.128;4.476;2024-02-26T09:23:31;7.77;;;7.27;;
16393;SDS011;8306;51.128;4.476;2024-02-26T09:25:57;7.93;;;7.53;;
16393;SDS011;8306;51.128;4.476;2024-02-26T09:28:24;8.27;;;7.77;;
16393;SDS011;8306;51.128;4.476;2024-02-26T09:30:51;7.23;;;6.80;;
16393;SDS011;8306;51.128;4.476;2024-02-26T09:33:17;7.00;;;6.60;;
16393;SDS011;8306;51.128;4.476;2024-02-26T09:35:44;7.73;;;7.13;;
16393;SDS011;8306;51.128;4.476;2024-02-26T09:38:10;6.90;;;6.50;;
16393;SDS011;8306;51.128;4.476;2024-02-26T09:40:37;8.93;;;8.43;;
16393;SDS011;8306;51.128;4.476;2024-02-26T09:43:03;8.50;;;8.00;;
16393;SDS011;8306;51.128;4.476;2024-02-26T09:45:30;8.20;;;7.70;;
16393;SDS011;8306;51.128;4.476;2024-02-26T09:47:56;9.07;;;8.57;;
16393;SDS011;8306;51.128;4.476;2024-02-26T09:50:22;9.93;;;9.23;;
16393;SDS011;8306;51.128;4.476;2024-02-26T09:52:49;10.20;;;9.40;;
16393;SDS011;8306;51.128;4.476;2024-02-26T09:55:15;8.93;;;8.33;;
16393;SDS011;8306;51.128;4.476;2024-02-26T09:57:44;7.83;;;7.43;;
16393;SDS011;8306;51.128;4.476;2024-02-26T10:00:08;7.87;;;7.47;;
16393;SDS011;8306;51.128;4.476;2024-02-26T10:02:35;8.43;;;7.93;;
16393;SDS011;8306;51.128;4.476;2024-02-26T10:05:02;6.07;;;5.77;;
16393;SDS011;8306;51.128;4.476;2024-02-26T10:07:28;8.57;;;8.07;;
16393;SDS011;8306;51.128;4.476;2024-02-26T10:09:54;7.80;;;7.20;;
16393;SDS011;8306;51.128;4.476;2024-02-26T10:12:21;7.80;;;7.20;;
16393;SDS011;8306;51.128;4.476;2024-02-26T10:14:47;7.70;;;7.27;;
16393;SDS011;8306;51.128;4.476;2024-02-26T10:17:14;6.87;;;6.47;;
16393;SDS011;8306;51.128;4.476;2024-02-26T10:19:40;7.17;;;6.77;;
16393;SDS011;8306;51.128;4.476;2024-02-26T10:22:07;7.80;;;7.30;;
16393;SDS011;8306;51.128;4.476;2024-02-26T10:24:33;7.47;;;6.97;;
16393;SDS011;8306;51.128;4.476;2024-02-26T10:27:00;7.20;;;6.80;;
16393;SDS011;8306;51.128;4.476;2024-02-26T10:29:26;8.90;;;8.30;;
16393;SDS011;8306;51.128;4.476;2024-02-26T10:31:53;6.97;;;6.57;;
16393;SDS011;8306;51.128;4.476;2024-02-26T10:34:19;7.30;;;6.90;;
16393;SDS011;8306;51.128;4.476;2024-02-26T10:36:46;7.30;;;6.90;;
16393;SDS011;8306;51.128;4.476;2024-02-26T10:39:12;7.47;;;6.97;;
16393;SDS011;8306;51.128;4.476;2024-02-26T10:41:42;7.90;;;7.40;;
16393;SDS011;8306;51.128;4.476;2024-02-26T10:44:12;7.43;;;6.97;;
16393;SDS011;8306;51.128;4.476;2024-02-26T10:46:35;7.90;;;7.40;;
16393;SDS011;8306;51.128;4.476;2024-02-26T10:49:01;7.77;;;7.27;;
16393;SDS011;8306;51.128;4.476;2024-02-26T10:51:28;6.97;;;6.47;;
16393;SDS011;8306;51.128;4.476;2024-02-26T10:53:57;7.33;;;6.83;;
16393;SDS011;8306;51.128;4.476;2024-02-26T10:56:27;7.53;;;7.03;;
16393;SDS011;8306;51.128;4.476;2024-02-26T10:58:56;7.83;;;7.33;;
16393;SDS011;8306;51.128;4.476;2024-02-26T11:01:22;7.77;;;7.27;;
16393;SDS011;8306;51.128;4.476;2024-02-26T11:03:50;6.30;;;5.90;;
16393;SDS011;8306;51.128;4.476;2024-02-26T11:06:15;6.73;;;6.30;;
16393;SDS011;8306;51.128;4.476;2024-02-26T11:08:42;7.67;;;7.20;;
16393;SDS011;8306;51.128;4.476;2024-02-26T11:11:08;6.10;;;5.70;;
16393;SDS011;8306;51.128;4.476;2024-02-26T11:13:35;6.47;;;6.07;;
16393;SDS011;8306;51.128;4.476;2024-02-26T11:16:01;6.83;;;6.43;;
16393;SDS011;8306;51.128;4.476;2024-02-26T11:18:28;8.13;;;7.63;;
16393;SDS011;8306;51.128;4.476;2024-02-26T11:20:54;6.93;;;6.43;;
16393;SDS011;8306;51.128;4.476;2024-02-26T11:23:20;8.67;;;8.07;;
16393;SDS011;8306;51.128;4.476;2024-02-26T11:25:47;8.37;;;7.77;;
16393;SDS011;8306;51.128;4.476;2024-02-26T11:28:14;7.60;;;6.63;;
16393;SDS011;8306;51.128;4.476;2024-02-26T11:30:41;6.80;;;6.33;;
16393;SDS011;8306;51.128;4.476;2024-02-26T11:33:07;6.50;;;6.10;;
16393;SDS011;8306;51.128;4.476;2024-02-26T11:35:33;7.00;;;6.50;;
16393;SDS011;8306;51.128;4.476;2024-02-26T11:37:59;6.07;;;5.67;;
16393;SDS011;8306;51.128;4.476;2024-02-26T11:40:26;6.80;;;6.40;;
16393;SDS011;8306;51.128;4.476;2024-02-26T11:42:52;7.07;;;6.67;;
16393;SDS011;8306;51.128;4.476;2024-02-26T11:48:04;6.47;;;6.07;;
16393;SDS011;8306;51.128;4.476;2024-02-26T11:50:36;6.43;;;6.03;;
16393;SDS011;8306;51.128;4.476;2024-02-26T11:58:47;6.70;;;6.20;;
16393;SDS011;8306;51.128;4.476;2024-02-26T12:04:08;7.77;;;7.27;;
16393;SDS011;8306;51.128;4.476;2024-02-26T12:06:46;8.07;;;7.57;;
16393;SDS011;8306;51.128;4.476;2024-02-26T12:09:30;6.80;;;6.40;;
16393;SDS011;8306;51.128;4.476;2024-02-26T12:11:41;6.50;;;6.10;;
16393;SDS011;8306;51.128;4.476;2024-02-26T12:14:07;7.80;;;7.30;;
16393;SDS011;8306;51.128;4.476;2024-02-26T12:19:07;7.90;;;7.40;;
16393;SDS011;8306;51.128;4.476;2024-02-26T12:21:36;7.80;;;7.30;;
16393;SDS011;8306;51.128;4.476;2024-02-26T12:24:06;8.03;;;7.53;;
16393;SDS011;8306;51.128;4.476;2024-02-26T12:26:25;7.90;;;7.40;;
16393;SDS011;8306;51.128;4.476;2024-02-26T12:28:52;8.23;;;7.63;;
16393;SDS011;8306;51.128;4.476;2024-02-26T12:31:18;9.80;;;9.13;;
16393;SDS011;8306;51.128;4.476;2024-02-26T12:33:45;8.63;;;8.03;;
16393;SDS011;8306;51.128;4.476;2024-02-26T12:36:11;8.50;;;7.90;;
16393;SDS011;8306;51.128;4.476;2024-02-26T12:38:38;7.43;;;6.93;;
16393;SDS011;8306;51.128;4.476;2024-02-26T12:41:04;8.20;;;7.50;;
16393;SDS011;8306;51.128;4.476;2024-02-26T12:43:31;7.60;;;7.10;;
16393;SDS011;8306;51.128;4.476;2024-02-26T12:45:57;7.23;;;6.73;;
16393;SDS011;8306;51.128;4.476;2024-02-26T12:48:23;7.03;;;6.60;;
16393;SDS011;8306;51.128;4.476;2024-02-26T12:50:50;7.67;;;7.17;;
16393;SDS011;8306;51.128;4.476;2024-02-26T12:53:17;7.53;;;6.93;;
16393;SDS011;8306;51.128;4.476;2024-02-26T12:55:43;7.53;;;7.03;;
16393;SDS011;8306;51.128;4.476;2024-02-26T12:58:09;8.17;;;7.57;;
16393;SDS011;8306;51.128;4.476;2024-02-26T13:00:36;9.43;;;8.80;;
16393;SDS011;8306;51.128;4.476;2024-02-26T13:03:02;8.03;;;7.43;;
16393;SDS011;8306;51.128;4.476;2024-02-26T13:05:29;9.37;;;8.73;;
16393;SDS011;8306;51.128;4.476;2024-02-26T13:07:55;9.13;;;8.43;;
16393;SDS011;8306;51.128;4.476;2024-02-26T13:10:22;9.63;;;8.87;;
16393;SDS011;8306;51.128;4.476;2024-02-26T13:12:49;8.83;;;8.17;;
16393;SDS011;8306;51.128;4.476;2024-02-26T13:15:18;9.00;;;8.30;;
16393;SDS011;8306;51.128;4.476;2024-02-26T13:17:44;8.80;;;8.20;;
16393;SDS011;8306;51.128;4.476;2024-02-26T13:20:10;8.17;;;7.57;;
16393;SDS011;8306;51.128;4.476;2024-02-26T13:22:37;10.30;;;9.57;;
16393;SDS011;8306;51.128;4.476;2024-02-26T13:25:04;9.63;;;8.83;;
16393;SDS011;8306;51.128;4.476;2024-02-26T13:27:31;9.80;;;9.00;;
16393;SDS011;8306;51.128;4.476;2024-02-26T13:30:04;9.57;;;8.77;;
16393;SDS011;8306;51.128;4.476;2024-02-26T13:32:31;7.80;;;7.20;;
16393;SDS011;8306;51.128;4.476;2024-02-26T13:35:08;8.60;;;8.00;;
16393;SDS011;8306;51.128;4.476;2024-02-26T13:37:31;8.07;;;7.43;;
16393;SDS011;8306;51.128;4.476;2024-02-26T13:39:57;8.70;;;8.00;;
16393;SDS011;8306;51.128;4.476;2024-02-26T13:42:24;9.70;;;8.90;;
16393;SDS011;8306;51.128;4.476;2024-02-26T13:44:50;7.40;;;6.90;;
16393;SDS011;8306;51.128;4.476;2024-02-26T13:47:17;8.60;;;8.00;;
16393;SDS011;8306;51.128;4.476;2024-02-26T13:49:43;9.43;;;8.73;;
16393;SDS011;8306;51.128;4.476;2024-02-26T13:52:10;8.17;;;7.63;;
16393;SDS011;8306;51.128;4.476;2024-02-26T13:54:36;6.97;;;6.47;;
16393;SDS011;8306;51.128;4.476;2024-02-26T13:57:03;8.00;;;7.50;;
16393;SDS011;8306;51.128;4.476;2024-02-26T13:59:29;9.07;;;8.30;;
16393;SDS011;8306;51.128;4.476;2024-02-26T14:01:56;8.67;;;7.97;;
16393;SDS011;8306;51.128;4.476;2024-02-26T14:04:22;9.60;;;8.90;;
16393;SDS011;8306;51.128;4.476;2024-02-26T14:06:49;7.93;;;7.33;;
16393;SDS011;8306;51.128;4.476;2024-02-26T14:09:15;7.33;;;6.83;;
16393;SDS011;8306;51.128;4.476;2024-02-26T14:11:42;7.90;;;7.30;;
16393;SDS011;8306;51.128;4.476;2024-02-26T14:14:08;7.37;;;6.87;;
16393;SDS011;8306;51.128;4.476;2024-02-26T14:16:35;10.03;;;9.27;;
16393;SDS011;8306;51.128;4.476;2024-02-26T14:19:01;8.37;;;7.77;;
16393;SDS011;8306;51.128;4.476;2024-02-26T14:21:27;7.53;;;7.03;;
16393;SDS011;8306;51.128;4.476;2024-02-26T14:23:54;7.27;;;6.77;;
16393;SDS011;8306;51.128;4.476;2024-02-26T14:26:21;8.13;;;7.63;;
16393;SDS011;8306;51.128;4.476;2024-02-26T14:28:47;9.47;;;8.77;;
16393;SDS011;8306;51.128;4.476;2024-02-26T14:31:16;8.33;;;7.63;;
16393;SDS011;8306;51.128;4.476;2024-02-26T14:33:40;8.80;;;8.10;;
16393;SDS011;8306;51.128;4.476;2024-02-26T14:36:06;8.33;;;7.73;;
16393;SDS011;8306;51.128;4.476;2024-02-26T14:38:33;8.20;;;7.60;;
16393;SDS011;8306;51.128;4.476;2024-02-26T14:40:59;9.10;;;8.40;;
16393;SDS011;8306;51.128;4.476;2024-02-26T14:43:26;8.53;;;7.87;;
16393;SDS011;8306;51.128;4.476;2024-02-26T14:45:52;7.33;;;6.83;;
16393;SDS011;8306;51.128;4.476;2024-02-26T14:48:19;6.40;;;6.00;;
16393;SDS011;8306;51.128;4.476;2024-02-26T14:50:45;6.83;;;6.37;;
16393;SDS011;8306;51.128;4.476;2024-02-26T14:53:12;6.80;;;6.40;;
16393;SDS011;8306;51.128;4.476;2024-02-26T14:55:38;7.07;;;6.57;;
16393;SDS011;8306;51.128;4.476;2024-02-26T14:58:05;5.10;;;4.70;;
16393;SDS011;8306;51.128;4.476;2024-02-26T15:00:31;5.37;;;4.97;;
16393;SDS011;8306;51.128;4.476;2024-02-26T15:02:58;5.87;;;5.37;;
16393;SDS011;8306;51.128;4.476;2024-02-26T15:05:24;5.20;;;4.80;;
16393;SDS011;8306;51.128;4.476;2024-02-26T15:07:51;5.17;;;4.87;;
16393;SDS011;8306;51.128;4.476;2024-02-26T15:10:17;6.47;;;6.00;;